Time;durP1;ratioP1;P1;durP2;ratioP2;P2;SDS_P1;SDS_P2;PMS_P1;PMS_P2;Temp;Humidity;BMP_temperature;BMP_pressure;BME280_temperature;BME280_humidity;BME280_pressure;Samples;Min_cycle;Max_cycle;Signal;HPM_P1;HPM_P2
2023/07/15 00:01:02;;;;;;;0.25;0.25;;;21.10;94.00;;;;;;4453720;32;20081;-65
2023/07/15 00:03:28;;;;;;;1.00;0.68;;;21.10;93.90;;;;;;4455966;32;20054;-65
2023/07/15 00:05:53;;;;;;;0.28;0.28;;;21.10;93.90;;;;;;4459255;32;20093;-65
2023/07/15 00:08:18;;;;;;;1.12;0.50;;;21.10;93.70;;;;;;4452757;32;20093;-65
2023/07/15 00:10:46;;;;;;;0.30;0.30;;;21.10;93.80;;;;;;4453737;32;20058;-65
2023/07/15 00:13:13;;;;;;;0.30;0.30;;;21.20;93.80;;;;;;4456358;32;20120;-65
2023/07/15 00:15:40;;;;;;;1.37;0.82;;;21.20;93.80;;;;;;4448822;32;20049;-65
2023/07/15 00:18:06;;;;;;;1.12;0.80;;;21.10;93.80;;;;;;4453743;32;20034;-65
2023/07/15 00:20:35;;;;;;;0.43;0.43;;;21.10;94.00;;;;;;4456018;32;20070;-65
2023/07/15 00:23:00;;;;;;;0.50;0.50;;;21.20;93.90;;;;;;4452416;32;20153;-65
2023/07/15 00:25:26;;;;;;;0.40;0.40;;;21.20;94.00;;;;;;4454969;32;20077;-65
2023/07/15 00:27:51;;;;;;;0.40;0.40;;;21.20;94.00;;;;;;4453744;32;20077;-65
2023/07/15 00:30:19;;;;;;;0.62;0.60;;;21.20;94.30;;;;;;4453621;32;20091;-65
2023/07/15 00:32:48;;;;;;;5.15;0.43;;;21.10;94.10;;;;;;4453867;32;20077;-65
2023/07/15 00:35:20;;;;;;;0.45;0.40;;;21.10;94.40;;;;;;4457075;32;20092;-65
2023/07/15 00:37:46;;;;;;;0.35;0.35;;;21.10;94.30;;;;;;4450839;32;20070;-65
2023/07/15 00:40:12;;;;;;;0.40;0.40;;;21.10;94.40;;;;;;4437046;32;20050;-65
2023/07/15 00:43:20;;;;;;;0.32;0.32;;;21.00;94.50;;;;;;4447881;32;20085;-65
2023/07/15 00:46:26;;;;;;;0.47;0.47;;;21.00;94.70;;;;;;4448554;32;20069;-65
2023/07/15 00:49:00;;;;;;;0.30;0.30;;;21.00;94.70;;;;;;4447512;32;20074;-65
2023/07/15 00:51:26;;;;;;;0.35;0.32;;;21.00;94.90;;;;;;4449866;32;20092;-65
2023/07/15 00:53:54;;;;;;;0.40;0.40;;;20.90;95.00;;;;;;4450334;32;20351;-65
2023/07/15 00:56:21;;;;;;;1.58;0.90;;;20.90;95.20;;;;;;4453884;32;20098;-65
2023/07/15 00:58:48;;;;;;;0.40;0.40;;;20.80;95.30;;;;;;4455264;32;20057;-66
2023/07/15 01:01:14;;;;;;;0.57;0.45;;;20.80;95.40;;;;;;4456090;32;20061;-66
2023/07/15 01:03:41;;;;;;;0.37;0.37;;;20.80;95.50;;;;;;4451656;32;20045;-65
2023/07/15 01:06:07;;;;;;;1.62;0.82;;;20.80;95.60;;;;;;4451272;32;20097;-65
2023/07/15 01:08:32;;;;;;;0.47;0.47;;;20.80;95.70;;;;;;4447054;32;20065;-65
2023/07/15 01:10:58;;;;;;;0.50;0.50;;;20.80;95.80;;;;;;4460623;32;20060;-65
2023/07/15 01:13:24;;;;;;;0.77;0.60;;;20.70;95.80;;;;;;4454022;32;20089;-65
2023/07/15 01:15:49;;;;;;;0.25;0.25;;;20.70;95.90;;;;;;4451064;32;20088;-65
2023/07/15 01:18:16;;;;;;;0.40;0.40;;;20.70;96.00;;;;;;4451863;32;20095;-66
2023/07/15 01:20:41;;;;;;;0.32;0.32;;;20.60;96.20;;;;;;4456297;32;20120;-65
2023/07/15 01:23:06;;;;;;;0.80;0.60;;;20.50;96.40;;;;;;4451570;32;20046;-65
2023/07/15 01:25:32;;;;;;;0.40;0.40;;;20.50;96.60;;;;;;4451061;32;20053;-65
2023/07/15 01:27:57;;;;;;;0.40;0.40;;;20.50;96.70;;;;;;4456146;32;20061;-65
2023/07/15 01:30:23;;;;;;;0.43;0.43;;;20.50;96.90;;;;;;4444122;32;20290;-65
2023/07/15 01:32:48;;;;;;;0.45;0.45;;;20.40;97.30;;;;;;4436029;32;20076;-65
2023/07/15 01:35:14;;;;;;;0.20;0.20;;;20.40;97.10;;;;;;4435186;32;20073;-65
2023/07/15 01:37:39;;;;;;;2.62;1.35;;;20.40;97.20;;;;;;4436186;32;20188;-65
2023/07/15 01:40:08;;;;;;;0.75;0.75;;;20.40;97.40;;;;;;4439225;32;20105;-65
2023/07/15 01:42:34;;;;;;;0.40;0.40;;;20.40;97.40;;;;;;4436747;32;20108;-65
2023/07/15 01:44:59;;;;;;;2.85;1.23;;;20.40;97.50;;;;;;4444255;32;20133;-65
2023/07/15 01:47:25;;;;;;;2.58;0.37;;;20.30;97.60;;;;;;4439700;32;20082;-64
2023/07/15 01:49:50;;;;;;;0.70;0.70;;;20.30;97.80;;;;;;4433135;32;20093;-65
2023/07/15 01:52:16;;;;;;;2.25;1.15;;;20.30;98.00;;;;;;4436064;32;20413;-65
2023/07/15 01:54:41;;;;;;;0.30;0.30;;;20.30;98.00;;;;;;4437157;32;20073;-65
2023/07/15 01:57:07;;;;;;;0.43;0.43;;;20.30;98.00;;;;;;4433659;32;20061;-65
2023/07/15 01:59:32;;;;;;;0.60;0.60;;;20.40;98.10;;;;;;4434836;32;20443;-65
2023/07/15 02:01:58;;;;;;;0.88;0.80;;;20.30;98.30;;;;;;4441122;32;20061;-65
2023/07/15 02:04:23;;;;;;;0.40;0.40;;;20.20;98.50;;;;;;4433939;32;20130;-65
2023/07/15 02:06:49;;;;;;;0.40;0.40;;;20.20;98.60;;;;;;4434275;32;20069;-65
2023/07/15 02:09:14;;;;;;;0.62;0.60;;;20.10;98.80;;;;;;4438623;32;20115;-65
2023/07/15 02:11:40;;;;;;;0.22;0.22;;;20.10;98.90;;;;;;4434818;32;20077;-65
2023/07/15 02:14:05;;;;;;;0.50;0.50;;;20.10;99.00;;;;;;4437881;32;20065;-65
2023/07/15 02:16:31;;;;;;;8.82;1.00;;;20.10;99.20;;;;;;4436653;32;20110;-65
2023/07/15 02:18:56;;;;;;;0.40;0.40;;;20.10;99.30;;;;;;4437720;32;20134;-65
2023/07/15 02:21:25;;;;;;;0.32;0.32;;;20.00;99.40;;;;;;4436133;32;20065;-65
2023/07/15 02:23:52;;;;;;;0.57;0.50;;;20.00;99.60;;;;;;4437414;32;20164;-65
2023/07/15 02:26:17;;;;;;;0.40;0.40;;;20.00;99.80;;;;;;4442987;32;20531;-65
2023/07/15 02:28:43;;;;;;;0.65;0.65;;;19.90;99.90;;;;;;4446669;32;20064;-65
2023/07/15 02:31:09;;;;;;;0.40;0.40;;;19.90;99.90;;;;;;4434439;32;20112;-65
2023/07/15 02:33:34;;;;;;;0.40;0.40;;;19.90;99.90;;;;;;4444642;32;20120;-65
2023/07/15 02:36:00;;;;;;;0.30;0.30;;;19.80;99.90;;;;;;4444090;32;20082;-65
2023/07/15 02:38:25;;;;;;;0.35;0.35;;;19.80;99.90;;;;;;4441594;32;20104;-65
2023/07/15 02:40:51;;;;;;;0.50;0.50;;;19.70;99.90;;;;;;4438374;32;20377;-65
2023/07/15 02:43:17;;;;;;;0.30;0.30;;;19.70;99.90;;;;;;4444721;32;20077;-65
2023/07/15 02:45:42;;;;;;;0.60;0.60;;;19.60;99.90;;;;;;4446990;32;20090;-65
2023/07/15 02:48:07;;;;;;;0.70;0.65;;;19.60;99.90;;;;;;4439495;32;20212;-65
2023/07/15 02:50:33;;;;;;;0.47;0.47;;;19.60;99.90;;;;;;4442897;32;20173;-65
2023/07/15 02:52:59;;;;;;;0.77;0.77;;;19.60;99.90;;;;;;4441238;32;20062;-65
2023/07/15 02:55:25;;;;;;;0.47;0.47;;;19.50;99.90;;;;;;4438038;32;20554;-65
2023/07/15 02:57:51;;;;;;;1.75;0.80;;;19.40;99.90;;;;;;4443581;32;20097;-65
2023/07/15 03:00:16;;;;;;;0.62;0.62;;;19.40;99.90;;;;;;4439082;32;20069;-65
2023/07/15 03:02:50;;;;;;;0.40;0.40;;;19.40;99.90;;;;;;4437613;32;20078;-65
2023/07/15 03:05:15;;;;;;;2.00;1.20;;;19.30;99.90;;;;;;4443047;32;20128;-65
2023/07/15 03:07:44;;;;;;;0.55;0.55;;;19.30;99.90;;;;;;4441476;32;20057;-65
2023/07/15 03:10:12;;;;;;;0.57;0.57;;;19.20;99.90;;;;;;4447875;32;20093;-65
2023/07/15 03:12:38;;;;;;;2.28;0.65;;;19.20;99.90;;;;;;4443019;32;20124;-65
2023/07/15 03:15:04;;;;;;;3.72;1.27;;;19.20;99.90;;;;;;4436858;32;20077;-65
2023/07/15 03:17:35;;;;;;;0.35;0.35;;;19.20;99.90;;;;;;4439148;32;20089;-65
2023/07/15 03:20:04;;;;;;;;;;;19.20;99.90;;;;;;4440463;32;20064;-65
2023/07/15 03:22:30;;;;;;;6.07;1.83;;;19.30;99.90;;;;;;4447888;32;20393;-65
2023/07/15 03:24:56;;;;;;;0.50;0.50;;;19.40;99.90;;;;;;4444618;32;20081;-65
2023/07/15 03:27:21;;;;;;;1.08;0.90;;;19.30;99.90;;;;;;4442015;32;20591;-65
2023/07/15 03:29:49;;;;;;;5.65;0.77;;;19.30;99.90;;;;;;4439242;32;20128;-65
2023/07/15 03:32:14;;;;;;;1.23;0.90;;;19.20;99.90;;;;;;4442886;32;20056;-65
2023/07/15 03:34:39;;;;;;;0.30;0.30;;;19.20;99.90;;;;;;4441818;32;20631;-65
2023/07/15 03:37:05;;;;;;;1.08;0.85;;;19.20;99.90;;;;;;4436979;32;20054;-65
2023/07/15 03:39:30;;;;;;;0.45;0.45;;;19.20;99.90;;;;;;4444712;32;20057;-65
2023/07/15 03:41:56;;;;;;;2.53;1.12;;;19.20;99.90;;;;;;4440246;32;20143;-65
2023/07/15 03:44:22;;;;;;;0.47;0.47;;;19.20;99.90;;;;;;4440714;32;20094;-65
2023/07/15 03:46:47;;;;;;;2.53;1.77;;;19.20;99.90;;;;;;4447049;32;20054;-65
2023/07/15 03:49:13;;;;;;;0.62;0.50;;;19.20;99.90;;;;;;4442860;32;20077;-65
2023/07/15 03:51:38;;;;;;;1.90;1.17;;;19.10;99.90;;;;;;4441050;32;20464;-65
2023/07/15 03:54:05;;;;;;;0.75;0.57;;;19.10;99.90;;;;;;4441599;32;20077;-65
2023/07/15 03:56:31;;;;;;;0.65;0.62;;;19.20;99.90;;;;;;4436659;32;20086;-65
2023/07/15 03:58:57;;;;;;;1.17;1.08;;;19.20;99.90;;;;;;4442558;32;20066;-65
2023/07/15 04:01:23;;;;;;;1.12;0.73;;;19.30;99.90;;;;;;4446557;32;20053;-65
2023/07/15 04:03:48;;;;;;;0.90;0.75;;;19.30;99.90;;;;;;4448854;32;20086;-65
2023/07/15 04:06:14;;;;;;;0.47;0.47;;;19.30;99.90;;;;;;4448133;32;20061;-65
2023/07/15 04:08:39;;;;;;;1.37;0.30;;;19.30;99.90;;;;;;4441743;32;20595;-64
2023/07/15 04:11:07;;;;;;;4.10;0.65;;;19.30;99.90;;;;;;4442534;32;20077;-65
2023/07/15 04:13:32;;;;;;;0.50;0.50;;;19.30;99.90;;;;;;4439216;32;20077;-65
2023/07/15 04:15:58;;;;;;;1.23;0.90;;;19.40;99.90;;;;;;4438926;32;20116;-65
2023/07/15 04:18:23;;;;;;;1.33;1.00;;;19.40;99.90;;;;;;4445245;32;20068;-65
2023/07/15 04:20:49;;;;;;;0.40;0.40;;;19.40;99.90;;;;;;4440514;32;20065;-65
2023/07/15 04:23:14;;;;;;;0.80;0.40;;;19.50;99.90;;;;;;4438533;32;20081;-65
2023/07/15 04:25:40;;;;;;;0.88;0.50;;;19.60;99.90;;;;;;4440789;32;20065;-65
2023/07/15 04:28:05;;;;;;;2.05;1.12;;;19.60;99.90;;;;;;4442151;32;20111;-65
2023/07/15 04:30:31;;;;;;;0.50;0.50;;;19.60;99.90;;;;;;4438374;32;20065;-65
2023/07/15 04:32:56;;;;;;;0.40;0.40;;;19.70;99.90;;;;;;4438330;32;20078;-65
2023/07/15 04:35:22;;;;;;;0.90;0.60;;;19.80;99.90;;;;;;4438844;32;20117;-65
2023/07/15 04:37:47;;;;;;;0.50;0.50;;;19.80;99.90;;;;;;4438579;32;20062;-65
2023/07/15 04:40:13;;;;;;;0.73;0.73;;;19.90;99.90;;;;;;4440330;32;20597;-65
2023/07/15 04:42:38;;;;;;;0.68;0.62;;;20.00;99.90;;;;;;4433991;32;20078;-65
2023/07/15 04:45:04;;;;;;;1.37;1.00;;;20.00;99.90;;;;;;4441185;32;20077;-65
2023/07/15 04:47:30;;;;;;;0.30;0.30;;;20.00;99.90;;;;;;4441313;32;20089;-65
2023/07/15 04:49:55;;;;;;;1.27;1.00;;;20.00;99.90;;;;;;4447540;32;20175;-65
2023/07/15 04:52:20;;;;;;;0.47;0.47;;;20.00;99.90;;;;;;4441071;32;20061;-65
2023/07/15 04:54:46;;;;;;;0.75;0.75;;;20.10;99.90;;;;;;4441311;32;20089;-65
2023/07/15 04:57:12;;;;;;;0.43;0.43;;;20.10;99.90;;;;;;4443527;32;20065;-65
2023/07/15 04:59:37;;;;;;;0.32;0.32;;;20.10;99.90;;;;;;4442932;32;20069;-65
2023/07/15 05:02:03;;;;;;;0.82;0.82;;;20.10;99.90;;;;;;4440510;32;20119;-65
2023/07/15 05:04:28;;;;;;;0.37;0.37;;;20.10;99.90;;;;;;4446453;32;20065;-65
2023/07/15 05:06:54;;;;;;;0.30;0.30;;;20.10;99.90;;;;;;4443564;32;20080;-65
2023/07/15 05:09:19;;;;;;;0.75;0.70;;;20.10;99.90;;;;;;4434468;32;20057;-65
2023/07/15 05:11:45;;;;;;;0.45;0.45;;;20.20;99.90;;;;;;4432522;32;20081;-65
2023/07/15 05:14:10;;;;;;;0.30;0.30;;;20.20;99.90;;;;;;4447497;32;20073;-65
2023/07/15 05:16:36;;;;;;;0.57;0.57;;;20.30;99.90;;;;;;4446663;32;20085;-65
2023/07/15 05:19:01;;;;;;;0.40;0.40;;;20.30;99.90;;;;;;4438413;32;20065;-65
2023/07/15 05:21:27;;;;;;;0.30;0.30;;;20.40;99.90;;;;;;4436598;32;20215;-66
2023/07/15 05:23:52;;;;;;;0.52;0.52;;;20.50;99.90;;;;;;4437158;32;20082;-65
2023/07/15 05:26:18;;;;;;;0.62;0.60;;;20.60;99.90;;;;;;4434746;32;20061;-65
2023/07/15 05:28:43;;;;;;;1.90;0.82;;;20.70;99.90;;;;;;4441537;32;20243;-65
2023/07/15 05:31:09;;;;;;;1.75;1.23;;;20.80;99.90;;;;;;4438856;32;20070;-65
2023/07/15 05:33:34;;;;;;;0.50;0.50;;;20.80;99.90;;;;;;4436236;32;20065;-66
2023/07/15 05:36:00;;;;;;;0.40;0.40;;;20.90;99.90;;;;;;4435264;32;20089;-65
2023/07/15 05:38:26;;;;;;;0.65;0.60;;;21.00;99.90;;;;;;4430230;32;20065;-65
2023/07/15 05:40:54;;;;;;;1.40;0.93;;;21.00;99.90;;;;;;4440582;32;20066;-65
2023/07/15 05:43:19;;;;;;;0.37;0.37;;;21.10;99.90;;;;;;4431797;32;20164;-65
2023/07/15 05:45:46;;;;;;;0.88;0.60;;;21.10;99.90;;;;;;4444337;32;20081;-65
2023/07/15 05:48:11;;;;;;;0.40;0.40;;;21.10;99.90;;;;;;4445939;32;20517;-65
2023/07/15 05:50:37;;;;;;;0.43;0.43;;;21.10;99.90;;;;;;4436089;32;20086;-64
2023/07/15 05:53:04;;;;;;;0.57;0.55;;;21.20;99.90;;;;;;4437236;32;20475;-65
2023/07/15 05:55:31;;;;;;;0.55;0.55;;;21.20;99.90;;;;;;4433096;32;20078;-65
2023/07/15 05:57:56;;;;;;;0.40;0.40;;;21.30;99.90;;;;;;4433852;32;20473;-65
2023/07/15 06:00:22;;;;;;;0.30;0.30;;;21.30;99.90;;;;;;4435851;32;20085;-65
2023/07/15 06:02:48;;;;;;;0.32;0.32;;;21.50;99.90;;;;;;4433275;32;20522;-65
2023/07/15 06:05:13;;;;;;;0.85;0.43;;;21.50;99.90;;;;;;4439895;32;20077;-65
2023/07/15 06:07:39;;;;;;;0.50;0.50;;;21.60;99.90;;;;;;4433507;32;20072;-66
2023/07/15 06:10:05;;;;;;;0.60;0.60;;;21.70;99.90;;;;;;4436283;32;20071;-66
2023/07/15 06:12:30;;;;;;;1.00;0.75;;;21.80;99.90;;;;;;4436250;32;20097;-66
2023/07/15 06:14:56;;;;;;;0.60;0.60;;;21.90;99.90;;;;;;4432986;32;20080;-66
2023/07/15 06:17:22;;;;;;;0.40;0.40;;;22.00;99.90;;;;;;4435184;32;20455;-65
2023/07/15 06:19:47;;;;;;;1.17;0.68;;;22.00;99.90;;;;;;4440761;32;20084;-65
2023/07/15 06:22:13;;;;;;;0.50;0.50;;;22.00;99.90;;;;;;4442919;32;20069;-66
2023/07/15 06:24:38;;;;;;;0.45;0.45;;;22.10;99.90;;;;;;4446291;32;20127;-65
2023/07/15 06:27:04;;;;;;;0.30;0.30;;;22.20;99.90;;;;;;4436807;32;20119;-65
2023/07/15 06:29:29;;;;;;;0.30;0.30;;;22.30;99.90;;;;;;4439899;32;20057;-65
2023/07/15 06:31:55;;;;;;;0.30;0.30;;;22.40;99.90;;;;;;4431915;32;20576;-65
2023/07/15 06:34:20;;;;;;;0.30;0.30;;;22.50;99.90;;;;;;4438400;32;20058;-65
2023/07/15 06:36:46;;;;;;;0.35;0.35;;;22.50;99.90;;;;;;4439081;32;20073;-65
2023/07/15 06:39:12;;;;;;;0.60;0.60;;;22.60;99.90;;;;;;4440829;32;20077;-65
2023/07/15 06:41:38;;;;;;;0.60;0.60;;;22.60;99.90;;;;;;4443948;32;20082;-65
2023/07/15 06:44:03;;;;;;;0.30;0.30;;;22.70;99.90;;;;;;4433225;32;20065;-65
2023/07/15 06:46:29;;;;;;;0.20;0.20;;;22.80;99.90;;;;;;4432241;32;20097;-66
2023/07/15 06:48:55;;;;;;;0.40;0.40;;;22.90;99.90;;;;;;4441645;32;20065;-65
2023/07/15 06:51:22;;;;;;;0.30;0.30;;;23.00;99.90;;;;;;4438835;32;20062;-65
2023/07/15 06:53:48;;;;;;;3.42;0.95;;;23.10;99.90;;;;;;4431208;32;20501;-66
2023/07/15 06:56:13;;;;;;;0.82;0.47;;;23.20;99.90;;;;;;4434078;32;20104;-65
2023/07/15 06:58:39;;;;;;;0.30;0.30;;;23.30;99.80;;;;;;4433882;32;20124;-66
2023/07/15 07:01:04;;;;;;;0.50;0.50;;;23.30;99.50;;;;;;4432803;32;20084;-66
2023/07/15 07:03:31;;;;;;;0.60;0.60;;;23.40;99.50;;;;;;4437807;32;20505;-65
2023/07/15 07:05:56;;;;;;;0.57;0.57;;;23.50;99.30;;;;;;4431471;32;20069;-65
2023/07/15 07:08:22;;;;;;;0.50;0.50;;;23.50;99.40;;;;;;4433745;32;20061;-65
2023/07/15 07:10:51;;;;;;;0.40;0.40;;;23.60;98.80;;;;;;4430011;32;20073;-65
2023/07/15 07:13:16;;;;;;;0.75;0.50;;;23.70;98.70;;;;;;4432915;32;20084;-65
2023/07/15 07:15:42;;;;;;;0.30;0.30;;;23.70;98.90;;;;;;4433298;32;20513;-65
2023/07/15 07:18:07;;;;;;;0.40;0.40;;;23.80;99.00;;;;;;4436929;32;20156;-64
2023/07/15 07:20:33;;;;;;;1.30;0.52;;;23.90;98.80;;;;;;4433368;32;20065;-65
2023/07/15 07:22:58;;;;;;;0.40;0.40;;;24.00;98.40;;;;;;4435380;32;20556;-65
2023/07/15 07:25:24;;;;;;;0.45;0.45;;;24.20;98.10;;;;;;4435878;32;20104;-65
2023/07/15 07:27:49;;;;;;;0.52;0.40;;;24.30;98.30;;;;;;4436603;32;20146;-65
2023/07/15 07:30:15;;;;;;;0.75;0.75;;;24.50;97.70;;;;;;4440927;32;20072;-65
2023/07/15 07:32:40;;;;;;;0.43;0.40;;;24.60;97.80;;;;;;4433465;32;20057;-64
2023/07/15 07:35:06;;;;;;;0.35;0.35;;;24.70;97.00;;;;;;4439418;32;20142;-65
2023/07/15 07:37:32;;;;;;;0.28;0.28;;;24.80;96.90;;;;;;4439914;32;20062;-65
2023/07/15 07:39:57;;;;;;;0.55;0.45;;;24.90;96.50;;;;;;4441879;32;20065;-65
2023/07/15 07:42:23;;;;;;;0.65;0.57;;;25.00;96.10;;;;;;4447843;32;20060;-65
2023/07/15 07:44:48;;;;;;;0.40;0.40;;;25.10;96.30;;;;;;4439474;32;20447;-65
2023/07/15 07:47:13;;;;;;;0.30;0.30;;;25.30;96.20;;;;;;4433205;32;20119;-65
2023/07/15 07:49:39;;;;;;;0.20;0.20;;;25.40;95.80;;;;;;4437329;32;20073;-65
2023/07/15 07:52:04;;;;;;;8.68;0.35;;;25.60;95.20;;;;;;4439487;32;20168;-65
2023/07/15 07:54:30;;;;;;;0.73;0.52;;;25.80;94.80;;;;;;4441736;32;20060;-65
2023/07/15 07:56:55;;;;;;;0.20;0.20;;;25.90;94.90;;;;;;4440711;32;20086;-65
2023/07/15 07:59:21;;;;;;;0.37;0.37;;;26.00;94.30;;;;;;4443286;32;20108;-65
2023/07/15 08:01:46;;;;;;;0.62;0.62;;;26.00;94.40;;;;;;4442068;32;20393;-63
2023/07/15 08:04:12;;;;;;;7.62;1.95;;;26.30;94.80;;;;;;4438015;32;20072;-65
2023/07/15 08:06:37;;;;;;;0.20;0.20;;;26.40;94.50;;;;;;4437385;32;20537;-65
2023/07/15 08:09:03;;;;;;;0.20;0.20;;;26.50;93.50;;;;;;4445757;32;20073;-65
2023/07/15 08:11:28;;;;;;;0.40;0.40;;;26.70;93.70;;;;;;4429877;32;20073;-65
2023/07/15 08:13:54;;;;;;;0.57;0.57;;;26.80;93.30;;;;;;4437357;32;20089;-66
2023/07/15 08:16:37;;;;;;;0.15;0.15;;;26.90;93.00;;;;;;4433122;32;20065;-65
2023/07/15 08:19:03;;;;;;;0.30;0.30;;;27.00;92.70;;;;;;4431350;32;20094;-66
2023/07/15 08:21:30;;;;;;;0.32;0.32;;;27.00;92.70;;;;;;4440378;32;20061;-65
2023/07/15 08:23:55;;;;;;;0.20;0.20;;;27.20;93.10;;;;;;4445046;32;20065;-65
2023/07/15 08:26:21;;;;;;;1.35;0.40;;;27.40;92.90;;;;;;4429720;32;20521;-64
2023/07/15 08:28:48;;;;;;;0.52;0.52;;;27.50;92.70;;;;;;4431988;32;20069;-65
2023/07/15 08:31:13;;;;;;;0.32;0.25;;;27.50;92.30;;;;;;4428366;32;20060;-65
2023/07/15 08:33:39;;;;;;;0.65;0.45;;;27.50;92.10;;;;;;4432466;32;20105;-65
2023/07/15 08:36:04;;;;;;;0.80;0.57;;;27.60;92.30;;;;;;4432621;32;20125;-64
2023/07/15 08:38:30;;;;;;;1.20;0.50;;;27.70;91.80;;;;;;4431001;32;20086;-66
2023/07/15 08:40:59;;;;;;;0.30;0.30;;;27.80;91.70;;;;;;4440126;32;20158;-65
2023/07/15 08:43:25;;;;;;;0.30;0.25;;;27.90;91.80;;;;;;4423463;32;20127;-65
2023/07/15 08:45:52;;;;;;;0.10;0.10;;;28.00;91.70;;;;;;4427967;32;20070;-65
2023/07/15 08:48:18;;;;;;;0.30;0.30;;;28.00;92.20;;;;;;4439198;32;20520;-65
2023/07/15 08:50:44;;;;;;;0.45;0.40;;;28.10;91.30;;;;;;4430921;32;20077;-66
2023/07/15 08:53:10;;;;;;;1.48;0.52;;;28.10;91.30;;;;;;4433189;32;20093;-65
2023/07/15 08:55:36;;;;;;;0.40;0.40;;;28.20;91.60;;;;;;4437900;32;20073;-65
2023/07/15 08:58:02;;;;;;;0.77;0.62;;;28.40;91.00;;;;;;4434957;32;20065;-65
2023/07/15 09:00:27;;;;;;;0.45;0.45;;;28.40;91.40;;;;;;4437919;32;20096;-65
2023/07/15 09:02:53;;;;;;;1.37;0.82;;;28.50;91.10;;;;;;4435380;32;20080;-65
2023/07/15 09:05:20;;;;;;;0.30;0.30;;;28.60;91.10;;;;;;4444704;32;20070;-65
2023/07/15 09:08:09;;;;;;;0.17;0.17;;;28.60;90.80;;;;;;4444718;32;20599;-65
2023/07/15 09:10:34;;;;;;;0.55;0.50;;;28.80;90.90;;;;;;4423932;32;20469;-65
2023/07/15 09:13:01;;;;;;;0.40;0.40;;;28.80;90.80;;;;;;4435826;32;20065;-65
2023/07/15 09:15:26;;;;;;;0.93;0.57;;;28.90;91.00;;;;;;4429112;32;20119;-65
2023/07/15 09:17:55;;;;;;;0.40;0.40;;;29.10;90.90;;;;;;4433236;32;20101;-65
2023/07/15 09:20:23;;;;;;;0.15;0.15;;;29.10;90.00;;;;;;4435660;32;20528;-65
2023/07/15 09:22:50;;;;;;;0.13;0.13;;;29.20;90.00;;;;;;4427725;32;20475;-65
2023/07/15 09:25:18;;;;;;;0.30;0.30;;;29.30;90.50;;;;;;4435115;32;20062;-65
2023/07/15 09:27:44;;;;;;;0.30;0.30;;;29.40;89.90;;;;;;4433902;32;20089;-65
2023/07/15 09:30:09;;;;;;;0.20;0.20;;;29.60;90.00;;;;;;4433081;32;20073;-65
2023/07/15 09:32:36;;;;;;;0.40;0.30;;;29.70;89.30;;;;;;4439691;32;20069;-65
2023/07/15 09:35:02;;;;;;;0.10;0.10;;;29.80;89.00;;;;;;4438678;32;20068;-66
2023/07/15 09:37:30;;;;;;;0.93;0.75;;;29.80;88.20;;;;;;4435012;32;20528;-65
2023/07/15 09:39:59;;;;;;;0.28;0.28;;;29.70;88.20;;;;;;4435148;32;20438;-65
2023/07/15 09:42:27;;;;;;;0.30;0.30;;;29.80;88.30;;;;;;4431415;32;20093;-64
2023/07/15 09:44:52;;;;;;;0.30;0.30;;;29.90;88.50;;;;;;4433716;32;20085;-65
2023/07/15 09:47:18;;;;;;;0.20;0.20;;;29.90;88.50;;;;;;4430320;32;20521;-65
2023/07/15 09:49:43;;;;;;;0.20;0.20;;;30.00;87.90;;;;;;4435359;32;20101;-65
2023/07/15 09:52:10;;;;;;;0.43;0.43;;;30.10;88.20;;;;;;4434049;32;20064;-65
2023/07/15 09:54:36;;;;;;;1.15;0.35;;;30.30;87.90;;;;;;4432806;32;20128;-65
2023/07/15 09:57:08;;;;;;;0.35;0.30;;;30.40;87.80;;;;;;4430529;32;20069;-65
2023/07/15 09:59:45;;;;;;;2.17;0.85;;;30.50;87.50;;;;;;4438362;32;20057;-63
2023/07/15 10:02:27;;;;;;;0.20;0.20;;;30.60;87.10;;;;;;4436409;32;20069;-65
2023/07/15 10:05:02;;;;;;;0.30;0.30;;;30.70;86.90;;;;;;4434693;32;20156;-65
2023/07/15 10:07:28;;;;;;;0.30;0.30;;;30.90;86.30;;;;;;4436841;32;20069;-65
2023/07/15 10:09:54;;;;;;;0.43;0.32;;;31.00;84.10;;;;;;4437434;32;20119;-65
2023/07/15 10:12:20;;;;;;;0.20;0.20;;;31.00;83.80;;;;;;4432494;32;20431;-65
2023/07/15 10:14:46;;;;;;;0.17;0.17;;;31.10;84.30;;;;;;4433961;32;20116;-65
2023/07/15 10:17:15;;;;;;;0.10;0.10;;;31.20;84.60;;;;;;4440077;32;20108;-64
2023/07/15 10:19:50;;;;;;;0.20;0.20;;;31.40;83.60;;;;;;4431149;32;20056;-65
2023/07/15 10:22:18;;;;;;;0.20;0.20;;;31.30;84.50;;;;;;4427385;32;20914;-65
2023/07/15 10:24:53;;;;;;;0.35;0.35;;;31.40;83.00;;;;;;4434451;32;20065;-65
2023/07/15 10:27:19;;;;;;;0.50;0.40;;;31.60;83.40;;;;;;4431551;32;20085;-65
2023/07/15 10:29:44;;;;;;;0.20;0.20;;;31.70;83.60;;;;;;4439085;32;20077;-65
2023/07/15 10:32:17;;;;;;;0.20;0.20;;;31.90;83.90;;;;;;4437250;32;20068;-65
2023/07/15 10:34:49;;;;;;;0.15;0.15;;;32.40;80.70;;;;;;4438802;32;20517;-65
2023/07/15 10:37:16;;;;;;;0.28;0.28;;;32.40;79.40;;;;;;4426544;32;20520;-65
2023/07/15 10:39:42;;;;;;;0.20;0.20;;;32.40;78.30;;;;;;4428154;32;20066;-65
2023/07/15 10:42:11;;;;;;;0.20;0.20;;;32.60;78.70;;;;;;4440131;32;20127;-65
2023/07/15 10:44:41;;;;;;;0.10;0.10;;;32.90;77.30;;;;;;4426659;32;20098;-65
2023/07/15 10:47:08;;;;;;;0.40;0.30;;;32.70;76.70;;;;;;4436162;32;20154;-65
2023/07/15 10:49:34;;;;;;;4.95;0.28;;;33.00;76.40;;;;;;4438119;32;20081;-65
2023/07/15 10:51:59;;;;;;;0.10;0.10;;;33.10;75.10;;;;;;4436948;32;20500;-65
2023/07/15 10:54:26;;;;;;;3.70;0.28;;;33.30;75.30;;;;;;4434734;32;20522;-65
2023/07/15 10:56:52;;;;;;;1.00;0.20;;;33.50;74.70;;;;;;4443650;32;20057;-66
2023/07/15 10:59:18;;;;;;;0.10;0.10;;;33.70;74.40;;;;;;4443832;32;20069;-64
2023/07/15 11:01:44;;;;;;;0.15;0.13;;;33.90;73.90;;;;;;4443673;32;20551;-65
2023/07/15 11:04:10;;;;;;;0.00;0.00;;;33.70;73.70;;;;;;4433233;32;20124;-64
2023/07/15 11:06:36;;;;;;;9.48;0.85;;;33.60;73.20;;;;;;4430361;32;20069;-65
2023/07/15 11:09:18;;;;;;;0.10;0.10;;;34.10;71.30;;;;;;4443224;32;20082;-64
2023/07/15 11:11:43;;;;;;;0.20;0.20;;;34.30;69.00;;;;;;4434732;32;20466;-64
2023/07/15 11:14:29;;;;;;;0.75;0.52;;;34.30;69.70;;;;;;4442340;32;20134;-64
2023/07/15 11:16:57;;;;;;;0.03;0.03;;;34.60;70.20;;;;;;4433304;32;20254;-64
2023/07/15 11:19:24;;;;;;;0.10;0.10;;;35.10;69.40;;;;;;4430855;32;20739;-64
2023/07/15 11:21:51;;;;;;;0.10;0.10;;;35.40;65.70;;;;;;4430573;32;20472;-64
2023/07/15 11:24:18;;;;;;;0.10;0.10;;;35.50;64.50;;;;;;4426913;32;20501;-62
2023/07/15 11:26:44;;;;;;;0.40;0.40;;;35.80;62.30;;;;;;4428858;32;20120;-64
2023/07/15 11:29:20;;;;;;;0.28;0.28;;;35.70;61.20;;;;;;4433609;32;20065;-63
2023/07/15 11:31:47;;;;;;;0.30;0.30;;;35.70;63.10;;;;;;4436989;32;20069;-64
2023/07/15 11:34:15;;;;;;;0.60;0.30;;;35.80;60.80;;;;;;4434895;32;20122;-63
2023/07/15 11:36:41;;;;;;;0.20;0.20;;;36.00;59.90;;;;;;4445012;32;20583;-66
2023/07/15 11:39:07;;;;;;;0.20;0.20;;;36.00;59.40;;;;;;4436419;32;20085;-63
2023/07/15 11:41:34;;;;;;;0.43;0.32;;;36.20;59.20;;;;;;4437524;32;20076;-64
2023/07/15 11:43:59;;;;;;;0.13;0.13;;;36.50;59.20;;;;;;4433229;32;20105;-63
2023/07/15 11:46:26;;;;;;;0.30;0.30;;;36.60;59.20;;;;;;4429883;32;86123;-65
2023/07/15 11:48:51;;;;;;;0.22;0.22;;;37.10;59.10;;;;;;4437847;32;20132;-64
2023/07/15 11:51:20;;;;;;;0.32;0.32;;;37.20;58.40;;;;;;4439155;32;20062;-64
2023/07/15 11:53:45;;;;;;;1.55;0.50;;;37.40;58.20;;;;;;4440888;32;20812;-64
2023/07/15 11:56:11;;;;;;;0.20;0.20;;;37.70;58.40;;;;;;4437538;32;20090;-64
2023/07/15 11:58:49;;;;;;;2.17;1.00;;;38.00;57.30;;;;;;4431250;32;20089;-64
2023/07/15 12:01:18;;;;;;;0.15;0.15;;;37.90;56.20;;;;;;4432069;32;20296;-64
2023/07/15 12:03:44;;;;;;;0.75;0.60;;;38.10;56.10;;;;;;4435199;32;20520;-64
2023/07/15 12:06:20;;;;;;;0.20;0.20;;;38.20;56.20;;;;;;4428033;32;20116;-65
2023/07/15 12:09:07;;;;;;;0.60;0.60;;;38.20;55.50;;;;;;4433565;32;20473;-64
2023/07/15 12:11:33;;;;;;;0.20;0.20;;;38.40;55.50;;;;;;4431950;32;20053;-64
2023/07/15 12:14:00;;;;;;;0.20;0.20;;;38.50;55.50;;;;;;4436915;32;20533;-64
2023/07/15 12:16:26;;;;;;;0.10;0.10;;;38.70;54.80;;;;;;4428793;32;20119;-63
2023/07/15 12:18:53;;;;;;;0.22;0.22;;;38.60;54.70;;;;;;4431976;32;20076;-63
2023/07/15 12:21:19;;;;;;;0.10;0.10;;;38.10;54.70;;;;;;4438303;32;20437;-63
2023/07/15 12:23:45;;;;;;;0.20;0.20;;;38.60;54.30;;;;;;4430150;32;20082;-64
2023/07/15 12:26:11;;;;;;;0.20;0.20;;;38.90;54.70;;;;;;4432200;32;20061;-63
2023/07/15 12:28:36;;;;;;;0.10;0.10;;;39.20;52.90;;;;;;4427304;32;20057;-64
2023/07/15 12:31:02;;;;;;;0.20;0.20;;;39.50;53.70;;;;;;4429767;32;20443;-63
2023/07/15 12:33:27;;;;;;;0.52;0.37;;;40.00;52.70;;;;;;4427568;32;20134;-63
2023/07/15 12:35:53;;;;;;;0.20;0.20;;;39.90;52.60;;;;;;4429394;32;20068;-64
2023/07/15 12:38:19;;;;;;;0.37;0.13;;;39.80;53.50;;;;;;4428725;32;20321;-64
2023/07/15 12:40:45;;;;;;;0.20;0.20;;;40.20;52.30;;;;;;4422553;32;20086;-63
2023/07/15 12:43:10;;;;;;;0.20;0.20;;;39.70;51.30;;;;;;4427534;32;20119;-64
2023/07/15 12:45:36;;;;;;;0.20;0.20;;;39.90;51.30;;;;;;4436364;32;20061;-64